createdAt,value
2023-09-14T00:01:01.630Z,98102.72
2023-09-14T00:03:30.821Z,98114.03
2023-09-14T00:05:59.592Z,98104.88
2023-09-14T00:08:31.394Z,98111.69
2023-09-14T00:11:01.447Z,98107.44
2023-09-14T00:13:29.680Z,98110.72
2023-09-14T00:15:58.624Z,98109.41
2023-09-14T00:18:28.524Z,98108.50
2023-09-14T00:20:58.706Z,98107.81
2023-09-14T00:23:27.209Z,98111.00
2023-09-14T00:25:57.345Z,98114.13
2023-09-14T00:28:25.758Z,98106.03
2023-09-14T00:30:55.034Z,98109.34
2023-09-14T00:33:24.337Z,98105.56
2023-09-14T00:35:53.200Z,98104.72
2023-09-14T00:38:21.582Z,98095.34
2023-09-14T00:40:51.969Z,98090.41
2023-09-14T00:43:21.946Z,98101.78
2023-09-14T00:45:51.235Z,98096.56
2023-09-14T00:48:19.598Z,98095.22
2023-09-14T00:50:48.883Z,98090.50
2023-09-14T00:53:18.977Z,98095.44
2023-09-14T00:55:48.367Z,98096.75
2023-09-14T00:58:17.763Z,98104.47
2023-09-14T01:00:48.322Z,98110.38
2023-09-14T01:03:17.088Z,98108.91
2023-09-14T01:05:46.903Z,98104.47
2023-09-14T01:08:15.377Z,98108.53
2023-09-14T01:10:43.989Z,98108.94
2023-09-14T01:13:16.483Z,98116.16
2023-09-14T01:15:50.578Z,98120.50
2023-09-14T01:18:22.919Z,98113.38
2023-09-14T01:21:25.904Z,98113.34
2023-09-14T01:23:59.573Z,98117.28
2023-09-14T01:26:30.327Z,98117.03
2023-09-14T01:29:00.400Z,98116.13
2023-09-14T01:31:30.157Z,98118.59
2023-09-14T01:33:58.880Z,98119.06
2023-09-14T01:36:34.854Z,98107.72
2023-09-14T01:39:05.392Z,98120.09
2023-09-14T01:41:36.129Z,98117.41
2023-09-14T01:44:05.264Z,98120.53
2023-09-14T01:46:34.809Z,98128.28
2023-09-14T01:49:03.285Z,98125.72
2023-09-14T01:51:32.108Z,98121.81
2023-09-14T01:54:00.418Z,98124.81
2023-09-14T01:56:29.016Z,98128.19
2023-09-14T01:58:58.571Z,98124.47
2023-09-14T02:01:27.267Z,98123.06
2023-09-14T02:03:56.316Z,98124.91
2023-09-14T02:06:25.038Z,98126.75
2023-09-14T02:08:53.346Z,98128.53
2023-09-14T02:11:21.877Z,98130.66
2023-09-14T02:13:50.360Z,98130.69
2023-09-14T02:16:20.463Z,98131.19
2023-09-14T02:18:48.913Z,98132.63
2023-09-14T02:21:18.382Z,98135.59
2023-09-14T02:23:46.536Z,98142.88
2023-09-14T02:26:15.138Z,98130.47
2023-09-14T02:28:43.459Z,98137.03
2023-09-14T02:31:13.105Z,98141.47
2023-09-14T02:33:42.951Z,98134.03
2023-09-14T02:36:11.698Z,98138.19
2023-09-14T02:38:39.980Z,98135.28
2023-09-14T02:41:08.548Z,98136.88
2023-09-14T02:43:36.794Z,98133.88
2023-09-14T02:46:05.385Z,98135.47
2023-09-14T02:48:33.950Z,98132.28
2023-09-14T02:51:04.318Z,98141.66
2023-09-14T02:53:32.625Z,98135.09
2023-09-14T02:56:01.124Z,98139.91
2023-09-14T02:58:29.393Z,98145.75
2023-09-14T03:00:58.100Z,98150.97
2023-09-14T03:03:26.469Z,98156.13
2023-09-14T03:05:55.795Z,98152.22
2023-09-14T03:08:25.346Z,98154.06
2023-09-14T03:10:54.227Z,98163.16
2023-09-14T03:13:22.517Z,98165.34
2023-09-14T03:15:55.354Z,98168.75
2023-09-14T03:18:23.794Z,98179.53
2023-09-14T03:20:53.827Z,98173.13
2023-09-14T03:23:22.463Z,98172.91
2023-09-14T03:25:52.546Z,98177.66
2023-09-14T03:28:20.934Z,98171.41
2023-09-14T03:30:49.635Z,98171.03
2023-09-14T03:33:17.963Z,98172.25
2023-09-14T03:35:46.850Z,98176.06
2023-09-14T03:38:17.068Z,98175.19
2023-09-14T03:40:45.574Z,98176.53
2023-09-14T03:43:15.330Z,98178.56
2023-09-14T03:45:44.116Z,98173.50
2023-09-14T03:48:12.482Z,98182.72
2023-09-14T03:50:41.067Z,98187.53
2023-09-14T03:53:11.336Z,98188.25
2023-09-14T03:55:40.047Z,98190.84
2023-09-14T03:58:08.668Z,98196.03
2023-09-14T04:00:38.706Z,98193.31
2023-09-14T04:03:07.179Z,98201.03
2023-09-14T04:05:35.977Z,98202.66
2023-09-14T04:08:04.705Z,98207.53
2023-09-14T04:10:33.283Z,98208.31
2023-09-14T04:13:26.205Z,98213.03
2023-09-14T04:15:56.627Z,98208.41
2023-09-14T04:18:25.409Z,98214.81
2023-09-14T04:20:54.405Z,98213.97
2023-09-14T04:23:22.867Z,98217.16
2023-09-14T04:25:52.422Z,98216.16
2023-09-14T04:28:22.396Z,98214.38
2023-09-14T04:30:52.240Z,98224.53
2023-09-14T04:33:22.326Z,98221.50
2023-09-14T04:35:50.888Z,98231.53
2023-09-14T04:38:19.208Z,98227.28
2023-09-14T04:40:49.281Z,98226.69
2023-09-14T04:43:17.708Z,98229.03
2023-09-14T04:45:47.728Z,98225.69
2023-09-14T04:48:17.299Z,98231.53
2023-09-14T04:50:47.734Z,98233.75
2023-09-14T04:53:16.071Z,98236.53
2023-09-14T04:55:46.853Z,98250.44
2023-09-14T04:58:15.230Z,98253.03
2023-09-14T05:00:44.150Z,98253.56
2023-09-14T05:03:12.537Z,98262.94
2023-09-14T05:05:41.170Z,98270.44
2023-09-14T05:08:10.973Z,98265.97
2023-09-14T05:10:39.665Z,98269.66
2023-09-14T05:13:08.364Z,98281.91
2023-09-14T05:15:37.796Z,98283.53
2023-09-14T05:18:06.834Z,98284.88
2023-09-14T05:20:35.425Z,98289.13
2023-09-14T05:23:04.201Z,98284.41
2023-09-14T05:25:34.406Z,98292.03
2023-09-14T05:28:02.634Z,98296.78
2023-09-14T05:30:31.272Z,98296.44
2023-09-14T05:32:59.493Z,98305.38
2023-09-14T05:35:28.566Z,98302.41
2023-09-14T05:37:56.723Z,98308.06
2023-09-14T05:40:25.339Z,98301.41
2023-09-14T05:42:55.035Z,98314.94
2023-09-14T05:45:24.782Z,98316.38
2023-09-14T05:47:53.022Z,98317.53
2023-09-14T05:50:21.746Z,98323.47
2023-09-14T05:52:50.213Z,98323.19
2023-09-14T05:55:19.210Z,98322.31
2023-09-14T05:57:49.000Z,98333.22
2023-09-14T06:00:20.391Z,98334.50
2023-09-14T06:02:49.153Z,98332.94
2023-09-14T06:05:25.218Z,98327.97
2023-09-14T06:07:55.865Z,98329.19
2023-09-14T06:10:24.803Z,98332.56
2023-09-14T06:12:53.165Z,98333.22
2023-09-14T06:15:23.209Z,98331.97
2023-09-14T06:17:51.480Z,98335.75
2023-09-14T06:20:20.030Z,98333.81
2023-09-14T06:22:48.352Z,98331.09
2023-09-14T06:25:17.395Z,98333.47
2023-09-14T06:27:46.484Z,98355.16
2023-09-14T06:30:15.042Z,98341.47
2023-09-14T06:32:44.806Z,98343.00
2023-09-14T06:35:13.342Z,98340.72
2023-09-14T06:37:42.109Z,98339.50
2023-09-14T06:40:13.532Z,98343.63
2023-09-14T06:42:43.088Z,98344.84
2023-09-14T06:45:13.064Z,98340.81
2023-09-14T06:47:41.548Z,98344.38
2023-09-14T06:50:13.757Z,98345.91
2023-09-14T06:52:42.354Z,98348.44
2023-09-14T06:55:11.735Z,98352.97
2023-09-14T06:57:40.098Z,98357.41
2023-09-14T07:00:15.326Z,98355.78
2023-09-14T07:02:43.866Z,98349.59
2023-09-14T07:05:14.358Z,98351.19
2023-09-14T07:07:43.384Z,98363.44
2023-09-14T07:10:12.760Z,98364.06
2023-09-14T07:12:41.216Z,98364.69
2023-09-14T07:15:11.076Z,98362.09
2023-09-14T07:17:39.507Z,98378.69
2023-09-14T07:20:09.674Z,98374.03
2023-09-14T07:22:39.656Z,98378.97
2023-09-14T07:25:10.040Z,98371.59
2023-09-14T07:27:38.614Z,98377.88
2023-09-14T07:30:08.636Z,98380.88
2023-09-14T07:32:37.037Z,98385.19
2023-09-14T07:35:06.560Z,98388.03
2023-09-14T07:37:34.846Z,98383.13
2023-09-14T07:40:05.902Z,98394.38
2023-09-14T07:42:34.684Z,98392.94
2023-09-14T07:45:03.250Z,98393.09
2023-09-14T07:47:31.747Z,98386.94
2023-09-14T07:50:00.447Z,98390.53
2023-09-14T07:52:29.492Z,98394.28
2023-09-14T07:54:58.359Z,98393.03
2023-09-14T07:57:28.143Z,98397.16
2023-09-14T07:59:56.612Z,98397.75
2023-09-14T08:02:25.399Z,98403.88
2023-09-14T08:04:54.244Z,98400.56
2023-09-14T08:07:22.847Z,98404.47
2023-09-14T08:09:51.290Z,98404.38
2023-09-14T08:12:19.656Z,98402.66
2023-09-14T08:14:49.427Z,98405.69
2023-09-14T08:17:17.974Z,98407.31
2023-09-14T08:19:46.765Z,98408.97
2023-09-14T08:22:16.388Z,98412.06
2023-09-14T08:24:45.157Z,98413.31
2023-09-14T08:27:13.685Z,98417.06
2023-09-14T08:29:44.322Z,98414.84
2023-09-14T08:32:14.186Z,98422.09
2023-09-14T08:34:42.838Z,98424.38
2023-09-14T08:37:12.342Z,98431.53
2023-09-14T08:39:41.018Z,98432.75
2023-09-14T08:42:09.332Z,98428.31
2023-09-14T08:44:37.962Z,98427.19
2023-09-14T08:47:06.690Z,98424.09
2023-09-14T08:50:01.508Z,98430.56
2023-09-14T08:52:30.169Z,98427.16
2023-09-14T08:54:58.962Z,98429.84
2023-09-14T08:57:28.033Z,98434.91
2023-09-14T08:59:58.247Z,98433.69
2023-09-14T09:02:27.540Z,98435.47
2023-09-14T09:04:55.898Z,98443.28
2023-09-14T09:07:26.121Z,98446.56
2023-09-14T09:09:54.361Z,98443.47
2023-09-14T09:12:22.915Z,98445.00
2023-09-14T09:14:51.936Z,98444.34
2023-09-14T09:17:20.790Z,98449.25
2023-09-14T09:19:49.917Z,98438.31
2023-09-14T09:22:19.978Z,98442.84
2023-09-14T09:24:49.967Z,98444.22
2023-09-14T09:27:28.051Z,98446.16
2023-09-14T09:29:59.938Z,98451.81
2023-09-14T09:32:28.980Z,98452.19
2023-09-14T09:34:57.395Z,98445.94
2023-09-14T09:37:26.756Z,98437.06
2023-09-14T09:39:56.808Z,98451.78
2023-09-14T09:42:25.953Z,98451.13
2023-09-14T09:45:00.248Z,98445.22
2023-09-14T09:47:29.763Z,98457.84
2023-09-14T09:49:58.880Z,98448.75
2023-09-14T09:52:28.855Z,98455.72
2023-09-14T09:54:58.839Z,98449.03
2023-09-14T09:57:30.515Z,98456.59
2023-09-14T09:59:59.117Z,98456.22
2023-09-14T10:02:32.590Z,98453.69
2023-09-14T10:05:01.260Z,98445.66
2023-09-14T10:07:29.947Z,98447.31
2023-09-14T10:09:59.956Z,98447.19
2023-09-14T10:12:33.118Z,98449.97
2023-09-14T10:15:01.756Z,98443.00
2023-09-14T10:17:32.343Z,98451.25
2023-09-14T10:20:01.351Z,98448.28
2023-09-14T10:22:30.708Z,98445.66
2023-09-14T10:25:01.040Z,98442.84
2023-09-14T10:27:29.742Z,98441.94
2023-09-14T10:29:58.169Z,98441.66
2023-09-14T10:32:27.835Z,98446.25
2023-09-14T10:35:06.359Z,98445.22
2023-09-14T10:37:36.531Z,98439.63
2023-09-14T10:40:09.634Z,98448.16
2023-09-14T10:42:38.183Z,98447.28
2023-09-14T10:45:07.847Z,98446.50
2023-09-14T10:47:38.508Z,98437.50
2023-09-14T10:50:08.501Z,98436.63
2023-09-14T10:52:38.689Z,98441.31
2023-09-14T10:55:11.086Z,98438.00
2023-09-14T10:57:41.655Z,98442.69
2023-09-14T11:00:25.294Z,98443.41
2023-09-14T11:03:17.976Z,98445.22
2023-09-14T11:05:50.086Z,98443.81
2023-09-14T11:08:21.451Z,98442.28
2023-09-14T11:11:02.051Z,98455.41
2023-09-14T11:13:37.195Z,98452.19
2023-09-14T11:16:09.445Z,98450.44
2023-09-14T11:18:54.665Z,98449.50
2023-09-14T11:21:45.801Z,98447.75
2023-09-14T11:24:15.169Z,98442.91
2023-09-14T11:26:50.135Z,98453.16
2023-09-14T11:29:24.397Z,98450.13
2023-09-14T11:32:06.426Z,98457.13
2023-09-14T11:34:42.946Z,98459.75
2023-09-14T11:37:18.629Z,98453.47
2023-09-14T11:39:58.956Z,98457.00
2023-09-14T11:42:34.633Z,98455.00
2023-09-14T11:45:12.665Z,98456.19
2023-09-14T11:47:46.506Z,98447.09
2023-09-14T11:50:16.573Z,98451.81
2023-09-14T11:52:46.174Z,98454.28
2023-09-14T11:55:15.957Z,98454.97
2023-09-14T11:57:45.904Z,98458.72
2023-09-14T12:00:15.471Z,98469.78
2023-09-14T12:02:43.894Z,98464.09
2023-09-14T12:05:13.043Z,98474.72
2023-09-14T12:07:41.489Z,98477.59
2023-09-14T12:10:20.430Z,98479.91
2023-09-14T12:12:50.376Z,98478.94
2023-09-14T12:15:20.016Z,98485.44
2023-09-14T12:17:52.316Z,98484.25
2023-09-14T12:20:21.573Z,98488.41
2023-09-14T12:22:50.046Z,98490.84
2023-09-14T12:25:19.684Z,98487.19
2023-09-14T12:27:49.630Z,98493.22
2023-09-14T12:30:18.448Z,98496.22
2023-09-14T12:32:46.943Z,98502.06
2023-09-14T12:35:17.606Z,98499.06
2023-09-14T12:37:46.027Z,98493.03
2023-09-14T12:40:15.007Z,98504.31
2023-09-14T12:42:44.425Z,98499.41
2023-09-14T12:45:17.149Z,98501.28
2023-09-14T12:47:47.963Z,98505.72
2023-09-14T12:50:18.138Z,98512.16
2023-09-14T12:52:46.777Z,98511.91
2023-09-14T12:55:17.345Z,98511.91
2023-09-14T12:57:48.826Z,98500.41
2023-09-14T13:00:19.404Z,98507.81
2023-09-14T13:02:49.555Z,98507.19
2023-09-14T13:05:19.858Z,98518.75
2023-09-14T13:07:49.662Z,98515.09
2023-09-14T13:10:21.193Z,98519.38
2023-09-14T13:12:54.635Z,98510.91
2023-09-14T13:15:26.132Z,98513.88
2023-09-14T13:17:55.999Z,98513.59
2023-09-14T13:20:25.572Z,98515.28
2023-09-14T13:22:53.918Z,98517.41
2023-09-14T13:25:25.331Z,98517.44
2023-09-14T13:27:54.275Z,98518.91
2023-09-14T13:30:28.577Z,98516.41
2023-09-14T13:32:58.209Z,98522.09
2023-09-14T13:35:27.501Z,98510.22
2023-09-14T13:37:58.213Z,98509.00
2023-09-14T13:40:29.466Z,98510.03
2023-09-14T13:42:59.630Z,98506.25
2023-09-14T13:45:30.573Z,98510.31
2023-09-14T13:47:59.021Z,98514.38
2023-09-14T13:50:28.002Z,98503.56
2023-09-14T13:52:56.240Z,98514.72
2023-09-14T13:55:24.793Z,98511.19
2023-09-14T13:57:53.183Z,98503.75
2023-09-14T14:00:23.623Z,98515.28
2023-09-14T14:02:56.545Z,98525.03
2023-09-14T14:05:25.390Z,98516.28
2023-09-14T14:07:53.741Z,98515.13
2023-09-14T14:10:22.293Z,98518.56
2023-09-14T14:12:50.880Z,98509.94
2023-09-14T14:15:19.606Z,98506.72
2023-09-14T14:17:48.184Z,98509.44
2023-09-14T14:20:18.374Z,98502.88
2023-09-14T14:22:46.528Z,98506.25
2023-09-14T14:25:15.300Z,98508.81
2023-09-14T14:27:43.954Z,98502.56
2023-09-14T14:30:13.957Z,98506.91
2023-09-14T14:32:42.653Z,98505.69
2023-09-14T14:35:12.880Z,98510.03
2023-09-14T14:37:42.571Z,98497.81
2023-09-14T14:40:28.685Z,98511.00
2023-09-14T14:43:02.491Z,98513.28
2023-09-14T14:45:31.249Z,98507.69
2023-09-14T14:48:00.093Z,98512.25
2023-09-14T14:50:28.793Z,98507.63
2023-09-14T14:52:58.591Z,98503.09
2023-09-14T14:55:27.227Z,98507.84
2023-09-14T14:57:55.874Z,98514.84
2023-09-14T15:00:24.671Z,98517.56
2023-09-14T15:02:53.066Z,98523.84
2023-09-14T15:05:21.768Z,98521.53
2023-09-14T15:07:50.115Z,98525.31
2023-09-14T15:10:20.388Z,98524.03
2023-09-14T15:12:50.626Z,98529.16
2023-09-14T15:15:19.344Z,98529.72
2023-09-14T15:17:47.898Z,98530.72
2023-09-14T15:20:16.659Z,98530.97
2023-09-14T15:22:45.510Z,98538.69
2023-09-14T15:25:14.469Z,98535.72
2023-09-14T15:27:44.186Z,98537.97
2023-09-14T15:30:13.746Z,98547.44
2023-09-14T15:32:44.468Z,98542.81
2023-09-14T15:35:14.491Z,98547.28
2023-09-14T15:37:43.083Z,98551.19
2023-09-14T15:40:15.130Z,98550.81
2023-09-14T15:42:46.259Z,98546.44
2023-09-14T15:45:15.123Z,98546.41
2023-09-14T15:47:45.624Z,98548.69
2023-09-14T15:50:14.406Z,98556.72
2023-09-14T15:52:42.962Z,98552.34
2023-09-14T15:55:29.017Z,98552.53
2023-09-14T15:58:01.743Z,98557.50
2023-09-14T16:00:30.356Z,98550.66
2023-09-14T16:02:58.917Z,98561.03
2023-09-14T16:05:28.305Z,98556.25
2023-09-14T16:08:07.237Z,98568.84
2023-09-14T16:10:36.219Z,98575.25
2023-09-14T16:13:06.415Z,98576.06
2023-09-14T16:15:35.123Z,98574.50
2023-09-14T16:18:03.607Z,98576.84
2023-09-14T16:20:32.550Z,98580.97
2023-09-14T16:23:01.158Z,98572.00
2023-09-14T16:25:29.843Z,98566.19
2023-09-14T16:27:58.192Z,98573.25
2023-09-14T16:30:28.513Z,98572.47
2023-09-14T16:32:57.049Z,98581.59
2023-09-14T16:35:25.655Z,98575.06
2023-09-14T16:37:54.008Z,98574.19
2023-09-14T16:40:22.596Z,98579.34
2023-09-14T16:42:51.106Z,98580.38
2023-09-14T16:45:20.058Z,98587.56
2023-09-14T16:47:50.278Z,98589.81
2023-09-14T16:50:18.913Z,98588.97
2023-09-14T16:52:47.368Z,98586.78
2023-09-14T16:55:17.633Z,98593.75
2023-09-14T16:57:48.232Z,98592.38
2023-09-14T17:00:17.747Z,98598.84
2023-09-14T17:02:46.832Z,98592.53
2023-09-14T17:05:18.335Z,98596.88
2023-09-14T17:07:48.909Z,98604.06
2023-09-14T17:10:21.212Z,98602.03
2023-09-14T17:12:52.667Z,98604.09
2023-09-14T17:15:21.150Z,98610.75
2023-09-14T17:17:49.569Z,98615.72
2023-09-14T17:20:22.510Z,98615.81
2023-09-14T17:22:50.953Z,98617.50
2023-09-14T17:25:19.650Z,98617.66
2023-09-14T17:27:48.148Z,98616.44
2023-09-14T17:30:16.965Z,98621.25
2023-09-14T17:32:46.397Z,98627.50
2023-09-14T17:35:15.861Z,98623.00
2023-09-14T17:37:46.058Z,98628.03
2023-09-14T17:40:14.746Z,98629.41
2023-09-14T17:42:43.050Z,98634.34
2023-09-14T17:45:12.530Z,98636.75
2023-09-14T17:47:42.682Z,98627.13
2023-09-14T17:50:12.543Z,98633.97
2023-09-14T17:52:41.669Z,98632.03
2023-09-14T17:55:12.256Z,98639.94
2023-09-14T17:57:41.621Z,98637.28
2023-09-14T18:00:14.694Z,98640.34
2023-09-14T18:02:43.493Z,98630.56
2023-09-14T18:05:12.327Z,98642.53
2023-09-14T18:07:40.904Z,98637.25
2023-09-14T18:10:13.863Z,98637.56
2023-09-14T18:12:43.043Z,98643.78
2023-09-14T18:15:12.524Z,98648.47
2023-09-14T18:17:41.052Z,98648.59
2023-09-14T18:20:11.909Z,98655.69
2023-09-14T18:22:42.428Z,98647.78
2023-09-14T18:25:14.149Z,98648.38
2023-09-14T18:27:42.816Z,98649.03
2023-09-14T18:30:13.982Z,98658.13
2023-09-14T18:32:53.134Z,98653.13
2023-09-14T18:35:22.645Z,98657.09
2023-09-14T18:37:52.395Z,98655.06
2023-09-14T18:40:23.635Z,98651.06
2023-09-14T18:42:56.309Z,98658.97
2023-09-14T18:45:25.662Z,98659.31
2023-09-14T18:47:55.117Z,98664.38
2023-09-14T18:50:23.816Z,98661.91
2023-09-14T18:52:52.698Z,98659.06
2023-09-14T18:55:24.600Z,98655.69
2023-09-14T18:57:53.849Z,98662.78
2023-09-14T19:00:22.777Z,98664.94
2023-09-14T19:02:51.357Z,98664.00
2023-09-14T19:05:20.119Z,98674.69
2023-09-14T19:07:48.524Z,98668.47
2023-09-14T19:10:17.260Z,98661.81
2023-09-14T19:12:47.201Z,98661.78
2023-09-14T19:15:17.569Z,98675.53
2023-09-14T19:17:46.478Z,98679.06
2023-09-14T19:20:16.416Z,98679.88
2023-09-14T19:22:44.626Z,98679.00
2023-09-14T19:25:13.261Z,98673.41
2023-09-14T19:27:41.743Z,98683.69
2023-09-14T19:30:12.691Z,98676.47
2023-09-14T19:32:41.830Z,98677.03
2023-09-14T19:35:11.615Z,98686.28
2023-09-14T19:37:40.352Z,98679.78
2023-09-14T19:40:10.211Z,98683.25
2023-09-14T19:42:39.487Z,98682.84
2023-09-14T19:45:08.946Z,98682.25
2023-09-14T19:47:41.572Z,98685.97
2023-09-14T19:50:11.010Z,98682.91
2023-09-14T19:52:39.362Z,98683.53
2023-09-14T19:55:08.682Z,98679.84
2023-09-14T19:57:37.168Z,98683.13
2023-09-14T20:00:07.154Z,98676.50
2023-09-14T20:02:36.113Z,98687.50
2023-09-14T20:05:07.742Z,98686.44
2023-09-14T20:07:37.739Z,98686.50
2023-09-14T20:10:07.898Z,98698.13
2023-09-14T20:12:36.436Z,98690.47
2023-09-14T20:15:05.736Z,98689.63
2023-09-14T20:17:35.180Z,98699.09
2023-09-14T20:20:04.616Z,98691.03
2023-09-14T20:22:34.757Z,98690.38
2023-09-14T20:25:03.939Z,98685.38
2023-09-14T20:27:33.079Z,98697.97
2023-09-14T20:30:01.855Z,98698.41
2023-09-14T20:32:32.903Z,98698.94
2023-09-14T20:35:01.703Z,98702.06
2023-09-14T20:37:30.138Z,98702.00
2023-09-14T20:40:08.982Z,98694.94
2023-09-14T20:42:37.366Z,98700.09
2023-09-14T20:45:07.846Z,98703.53
2023-09-14T20:47:36.204Z,98709.34
2023-09-14T20:50:06.139Z,98709.25
2023-09-14T20:52:34.779Z,98705.38
2023-09-14T20:55:05.792Z,98709.34
2023-09-14T20:57:34.302Z,98706.81
2023-09-14T21:00:03.184Z,98707.31
2023-09-14T21:02:32.389Z,98711.38
2023-09-14T21:05:01.788Z,98701.66
2023-09-14T21:07:30.062Z,98702.59
2023-09-14T21:09:58.899Z,98709.81
2023-09-14T21:12:28.748Z,98713.78
2023-09-14T21:14:57.557Z,98709.00
2023-09-14T21:17:26.699Z,98708.72
2023-09-14T21:19:56.885Z,98707.53
2023-09-14T21:22:25.194Z,98704.28
2023-09-14T21:24:54.387Z,98706.53
2023-09-14T21:27:22.655Z,98713.59
2023-09-14T21:29:52.680Z,98706.31
2023-09-14T21:32:21.113Z,98714.16
2023-09-14T21:34:49.820Z,98705.72
2023-09-14T21:37:18.617Z,98707.41
2023-09-14T21:39:47.463Z,98709.44
2023-09-14T21:42:15.977Z,98711.06
2023-09-14T21:44:44.633Z,98705.03
2023-09-14T21:47:14.326Z,98709.63
2023-09-14T21:49:44.056Z,98701.66
2023-09-14T21:52:13.086Z,98699.75
2023-09-14T21:54:42.144Z,98709.50
2023-09-14T21:57:10.714Z,98704.28
2023-09-14T21:59:42.847Z,98703.38
2023-09-14T22:02:11.842Z,98700.53
2023-09-14T22:04:41.862Z,98701.22
2023-09-14T22:07:10.762Z,98703.03
2023-09-14T22:09:41.821Z,98711.94
2023-09-14T22:12:10.170Z,98707.47
2023-09-14T22:14:38.672Z,98711.16
2023-09-14T22:17:09.549Z,98710.28
2023-09-14T22:19:37.856Z,98705.09
2023-09-14T22:22:08.012Z,98703.94
2023-09-14T22:24:36.797Z,98706.25
2023-09-14T22:27:06.197Z,98711.03
2023-09-14T22:29:36.163Z,98713.00
2023-09-14T22:32:05.081Z,98711.94
2023-09-14T22:34:33.640Z,98707.09
2023-09-14T22:37:02.100Z,98699.84
2023-09-14T22:39:32.235Z,98706.19
2023-09-14T22:42:00.500Z,98707.16
2023-09-14T22:44:29.018Z,98705.94
2023-09-14T22:46:57.343Z,98697.50
2023-09-14T22:49:26.134Z,98698.31
2023-09-14T22:51:54.556Z,98698.31
2023-09-14T22:54:23.488Z,98705.53
2023-09-14T22:56:53.160Z,98702.66
2023-09-14T22:59:21.615Z,98699.56
2023-09-14T23:01:50.172Z,98693.91
2023-09-14T23:04:18.991Z,98707.63
2023-09-14T23:06:47.449Z,98706.81
2023-09-14T23:09:16.384Z,98704.78
2023-09-14T23:11:44.950Z,98707.22
2023-09-14T23:14:16.290Z,98699.91
2023-09-14T23:16:46.236Z,98698.72
2023-09-14T23:19:15.816Z,98703.16
2023-09-14T23:21:44.155Z,98699.13
2023-09-14T23:24:12.917Z,98696.66
2023-09-14T23:26:42.795Z,98707.59
2023-09-14T23:29:12.963Z,98701.16
2023-09-14T23:31:44.019Z,98704.75
2023-09-14T23:34:13.539Z,98706.88
2023-09-14T23:36:43.281Z,98705.19
2023-09-14T23:39:13.659Z,98703.16
2023-09-14T23:41:42.608Z,98705.56
2023-09-14T23:44:12.967Z,98713.63
2023-09-14T23:46:43.666Z,98716.09
2023-09-14T23:49:15.270Z,98706.41
2023-09-14T23:51:44.930Z,98721.28
2023-09-14T23:54:14.463Z,98717.69
2023-09-14T23:56:43.679Z,98724.09
2023-09-14T23:59:12.414Z,98722.09
